Aviation Digital Data Service (ADDS)

Output produced by METARs form (2310 UTC 15 August 2018)
found at http://www.aviationweather.gov/adds/metars/
 
KYIP 152146Z 1522/1618 23010KT P6SM VCSH FEW040 OVC200 
     FM160000 23006KT P6SM SCT045 BKN070 OVC150 
     FM160600 20005KT P6SM VCSH OVC045 
     FM160900 20009KT 4SM -SHRA SCT020 OVC040 
     TEMPO 1614/1618 2SM RA SCT012 OVC020
       
KYKM 151720Z 1518/1618 VRB04KT 4SM HZ FU FEW250 
     FM160200 32007KT 4SM HZ FU FEW150 SCT200 
     FM160800 28007KT 3SM HZ FU FEW150 SCT200 
     FM161700 VRB04KT 4SM HZ FU FEW150
       
KYNG 151720Z 1518/1618 22004KT P6SM SCT250 
     FM160000 VRB03KT P6SM OVC100 
     FM161100 VRB03KT P6SM VCSH OVC050